Terminal Aerodrome Forecast
Issued by NWS Cleveland, OH

Home | Current Version | Previous Version | Graphics & Text | Print | Product List | Glossary On
Versions: 1 2 3 4 5 6 7 8 9 10 11 12 13 14 15 16 17 18
000
FTUS41 KCLE 280535
TAFCAK
TAF
KCAK 280535Z 2806/2906 18008KT P6SM SCT090 BKN250
     FM281200 15008KT P6SM OVC090
     FM281700 13008KT P6SM SCT035 OVC050
     FM282100 08008KT P6SM VCSH SCT025 OVC035
      TEMPO 2823/2903 5SM -RA SCT015 OVC025
     FM290500 07006KT P6SM SCT025 OVC035=

USA.gov is the U.S. government's official web portal to all federal, state and local government web resources and services.